createdAt,value
2023-04-04T00:00:37.145Z,4.60
2023-04-04T00:03:04.285Z,4.87
2023-04-04T00:05:31.716Z,5.17
2023-04-04T00:07:58.695Z,4.77
2023-04-04T00:10:25.714Z,4.67
2023-04-04T00:12:53.146Z,4.80
2023-04-04T00:15:20.164Z,5.00
2023-04-04T00:17:47.229Z,5.07
2023-04-04T00:20:14.451Z,4.73
2023-04-04T00:22:41.424Z,5.13
2023-04-04T00:25:09.736Z,5.13
2023-04-04T00:27:36.917Z,5.20
2023-04-04T00:30:04.167Z,5.50
2023-04-04T00:32:31.301Z,5.43
2023-04-04T00:34:59.046Z,5.33
2023-04-04T00:37:26.045Z,5.50
2023-04-04T00:39:53.088Z,4.97
2023-04-04T00:42:20.227Z,4.80
2023-04-04T00:44:47.409Z,5.07
2023-04-04T00:47:15.008Z,5.37
2023-04-04T00:49:44.905Z,5.10
2023-04-04T00:52:12.068Z,5.33
2023-04-04T00:54:39.718Z,5.27
2023-04-04T00:57:08.477Z,5.33
2023-04-04T00:59:36.291Z,5.50
2023-04-04T01:02:04.174Z,5.57
2023-04-04T01:04:31.701Z,5.30
2023-04-04T01:06:59.867Z,5.03
2023-04-04T01:09:28.140Z,5.47
2023-04-04T01:11:56.928Z,5.43
2023-04-04T01:14:25.512Z,5.27
2023-04-04T01:16:53.008Z,5.37
2023-04-04T01:19:38.251Z,5.60
2023-04-04T01:22:14.706Z,5.80
2023-04-04T01:24:46.723Z,5.37
2023-04-04T01:27:14.704Z,5.50
2023-04-04T01:29:48.564Z,5.20
2023-04-04T01:32:20.349Z,5.40
2023-04-04T01:35:06.130Z,5.90
2023-04-04T01:37:44.614Z,5.80
2023-04-04T01:40:25.187Z,5.20
2023-04-04T01:42:54.429Z,5.67
2023-04-04T01:45:25.946Z,5.70
2023-04-04T01:47:53.263Z,5.47
2023-04-04T01:50:23.697Z,5.23
2023-04-04T01:52:51.435Z,5.67
2023-04-04T01:55:18.580Z,5.47
2023-04-04T01:57:46.267Z,5.73
2023-04-04T02:00:13.800Z,5.30
2023-04-04T02:02:43.930Z,5.47
2023-04-04T02:05:12.060Z,5.10
2023-04-04T02:07:39.293Z,5.53
2023-04-04T02:10:14.190Z,5.70
2023-04-04T02:12:41.267Z,5.80
2023-04-04T02:15:08.875Z,5.67
2023-04-04T02:17:35.974Z,5.50
2023-04-04T02:20:03.966Z,5.83
2023-04-04T02:22:31.120Z,6.23
2023-04-04T02:24:58.182Z,5.80
2023-04-04T02:27:25.159Z,6.50
2023-04-04T02:29:52.687Z,5.80
2023-04-04T02:32:19.641Z,5.70
2023-04-04T02:34:47.695Z,5.87
2023-04-04T02:37:14.825Z,6.20
2023-04-04T02:39:42.989Z,5.67
2023-04-04T02:42:10.034Z,5.50
2023-04-04T02:44:37.181Z,6.27
2023-04-04T02:47:06.876Z,6.10
2023-04-04T02:49:33.974Z,6.20
2023-04-04T02:52:01.250Z,6.40
2023-04-04T02:54:33.144Z,6.20
2023-04-04T02:57:01.017Z,6.43
2023-04-04T02:59:28.498Z,6.40
2023-04-04T03:01:56.198Z,6.30
2023-04-04T03:04:23.720Z,5.97
2023-04-04T03:06:50.902Z,5.90
2023-04-04T03:09:17.935Z,5.90
2023-04-04T03:11:44.963Z,5.77
2023-04-04T03:14:12.883Z,5.73
2023-04-04T03:16:40.456Z,6.10
2023-04-04T03:19:07.643Z,5.73
2023-04-04T03:21:34.841Z,5.93
2023-04-04T03:24:02.139Z,6.13
2023-04-04T03:26:29.602Z,5.53
2023-04-04T03:28:56.926Z,5.60
2023-04-04T03:31:25.464Z,6.27
2023-04-04T03:33:53.143Z,5.60
2023-04-04T03:36:22.912Z,6.07
2023-04-04T03:38:50.862Z,5.87
2023-04-04T03:41:17.926Z,5.60
2023-04-04T03:43:45.701Z,5.60
2023-04-04T03:46:12.655Z,5.93
2023-04-04T03:48:40.554Z,5.67
2023-04-04T03:51:10.601Z,5.70
2023-04-04T03:53:38.752Z,5.83
2023-04-04T03:56:05.856Z,6.27
2023-04-04T03:58:35.520Z,5.40
2023-04-04T04:01:02.758Z,5.83
2023-04-04T04:03:31.399Z,5.60
2023-04-04T04:05:59.841Z,5.57
2023-04-04T04:08:27.912Z,5.37
2023-04-04T04:10:55.086Z,5.70
2023-04-04T04:13:22.276Z,5.77
2023-04-04T04:15:50.491Z,5.17
2023-04-04T04:18:21.851Z,5.27
2023-04-04T04:20:50.278Z,4.80
2023-04-04T04:23:17.367Z,5.23
2023-04-04T04:25:48.820Z,5.40
2023-04-04T04:28:18.357Z,5.07
2023-04-04T04:30:46.337Z,5.40
2023-04-04T04:33:16.045Z,5.40
2023-04-04T04:36:01.053Z,5.87
2023-04-04T04:38:32.395Z,5.63
2023-04-04T04:41:00.845Z,5.60
2023-04-04T04:43:37.084Z,5.70
2023-04-04T04:46:04.325Z,5.90
2023-04-04T04:48:33.024Z,5.60
2023-04-04T04:51:00.801Z,5.63
2023-04-04T04:53:43.202Z,5.30
2023-04-04T04:56:10.644Z,5.33
2023-04-04T04:58:41.275Z,5.93
2023-04-04T05:01:11.211Z,5.20
2023-04-04T05:03:40.354Z,6.07
2023-04-04T05:06:10.953Z,5.70
2023-04-04T05:08:38.512Z,5.53
2023-04-04T05:11:31.660Z,5.80
2023-04-04T05:13:59.320Z,5.80
2023-04-04T05:16:29.979Z,5.97
2023-04-04T05:18:58.589Z,5.90
2023-04-04T05:21:25.537Z,5.87
2023-04-04T05:23:55.124Z,6.03
2023-04-04T05:26:25.037Z,5.93
2023-04-04T05:28:54.600Z,6.17
2023-04-04T05:31:23.683Z,5.80
2023-04-04T05:33:53.955Z,5.30
2023-04-04T05:36:34.798Z,6.20
2023-04-04T05:39:05.858Z,5.73
2023-04-04T05:41:36.679Z,5.63
2023-04-04T05:44:11.608Z,5.53
2023-04-04T05:46:38.958Z,5.93
2023-04-04T05:49:07.336Z,5.87
2023-04-04T05:51:37.274Z,4.90
2023-04-04T05:54:09.097Z,6.03
2023-04-04T05:56:37.936Z,5.70
2023-04-04T05:59:11.186Z,5.97
2023-04-04T06:01:50.153Z,6.20
2023-04-04T06:04:17.941Z,5.97
2023-04-04T06:06:46.625Z,6.17
2023-04-04T06:09:13.808Z,5.97
2023-04-04T06:11:40.998Z,5.90
2023-04-04T06:14:12.637Z,5.90
2023-04-04T06:16:41.274Z,6.80
2023-04-04T06:19:08.311Z,6.73
2023-04-04T06:21:35.447Z,6.13
2023-04-04T06:24:03.182Z,6.37
2023-04-04T06:26:30.368Z,5.97
2023-04-04T06:29:00.222Z,6.20
2023-04-04T06:31:31.152Z,5.60
2023-04-04T06:34:04.454Z,5.90
2023-04-04T06:36:35.892Z,6.40
2023-04-04T06:39:04.694Z,6.17
2023-04-04T06:41:32.430Z,6.50
2023-04-04T06:44:00.480Z,6.37
2023-04-04T06:46:28.110Z,6.63
2023-04-04T06:48:55.075Z,6.37
2023-04-04T06:51:22.251Z,6.30
2023-04-04T06:53:50.213Z,6.47
2023-04-04T06:56:17.430Z,6.83
2023-04-04T06:58:44.487Z,6.20
2023-04-04T07:01:11.875Z,6.50
2023-04-04T07:03:39.055Z,6.33
2023-04-04T07:06:06.299Z,6.60
2023-04-04T07:08:36.219Z,6.83
2023-04-04T07:11:05.039Z,6.87
2023-04-04T07:13:31.977Z,6.17
2023-04-04T07:15:59.211Z,6.20
2023-04-04T07:18:26.290Z,6.53
2023-04-04T07:20:53.625Z,6.70
2023-04-04T07:23:20.722Z,7.77
2023-04-04T07:25:47.786Z,6.53
2023-04-04T07:28:14.925Z,6.20
2023-04-04T07:30:42.091Z,5.97
2023-04-04T07:33:09.515Z,5.90
2023-04-04T07:35:36.609Z,5.68
2023-04-04T07:38:04.427Z,5.97
2023-04-04T07:40:32.039Z,5.75
2023-04-04T07:42:59.010Z,6.07
2023-04-04T07:45:26.173Z,5.75
2023-04-04T07:47:53.321Z,5.38
2023-04-04T07:50:20.985Z,6.25
2023-04-04T07:52:55.906Z,5.70
2023-04-04T07:55:25.547Z,5.75
2023-04-04T07:57:53.399Z,5.90
2023-04-04T08:00:26.614Z,6.65
2023-04-04T08:02:55.278Z,5.78
2023-04-04T08:05:22.555Z,5.53
2023-04-04T08:07:49.861Z,5.78
2023-04-04T08:10:17.825Z,5.80
2023-04-04T08:12:45.402Z,6.15
2023-04-04T08:15:12.891Z,5.88
2023-04-04T08:17:40.362Z,5.72
2023-04-04T08:20:07.884Z,5.35
2023-04-04T08:22:35.034Z,5.72
2023-04-04T08:25:02.039Z,5.45
2023-04-04T08:27:29.092Z,5.03
2023-04-04T08:29:56.447Z,5.55
2023-04-04T08:32:23.789Z,5.13
2023-04-04T08:34:51.223Z,4.70
2023-04-04T08:37:18.643Z,5.55
2023-04-04T08:39:45.555Z,5.20
2023-04-04T08:42:16.943Z,4.82
2023-04-04T08:44:45.893Z,5.15
2023-04-04T08:47:14.672Z,5.20
2023-04-04T08:49:45.898Z,4.38
2023-04-04T08:52:15.054Z,4.60
2023-04-04T08:54:44.266Z,4.57
2023-04-04T08:57:11.896Z,4.97
2023-04-04T08:59:39.867Z,4.72
2023-04-04T09:02:10.368Z,4.57
2023-04-04T09:04:39.576Z,3.88
2023-04-04T09:07:07.141Z,4.30
2023-04-04T09:09:34.547Z,4.22
2023-04-04T09:12:03.531Z,4.78
2023-04-04T09:14:32.223Z,4.60
2023-04-04T09:16:59.582Z,4.13
2023-04-04T09:19:26.686Z,4.13
2023-04-04T09:21:53.829Z,4.00
2023-04-04T09:24:20.903Z,4.38
2023-04-04T09:26:49.176Z,3.97
2023-04-04T09:29:19.837Z,4.13
2023-04-04T09:31:49.476Z,3.28
2023-04-04T09:34:19.051Z,3.60
2023-04-04T09:36:46.854Z,3.35
2023-04-04T09:39:16.752Z,3.80
2023-04-04T09:41:45.879Z,3.70
2023-04-04T09:44:13.479Z,3.07
2023-04-04T09:46:41.743Z,3.60
2023-04-04T09:49:19.955Z,3.63
2023-04-04T09:51:55.021Z,4.43
2023-04-04T09:54:29.634Z,3.03
2023-04-04T09:56:57.591Z,3.20
2023-04-04T09:59:24.927Z,2.97
2023-04-04T10:01:54.606Z,3.45
2023-04-04T10:04:22.124Z,3.53
2023-04-04T10:06:49.294Z,3.40
2023-04-04T10:09:16.404Z,3.13
2023-04-04T10:11:44.208Z,3.40
2023-04-04T10:14:11.645Z,3.40
2023-04-04T10:16:44.646Z,3.37
2023-04-04T10:19:13.728Z,3.10
2023-04-04T10:21:41.613Z,3.20
2023-04-04T10:24:10.050Z,3.40
2023-04-04T10:26:37.924Z,3.20
2023-04-04T10:29:06.106Z,3.50
2023-04-04T10:31:38.403Z,3.47
2023-04-04T10:34:20.720Z,3.00
2023-04-04T10:36:54.299Z,3.47
2023-04-04T10:39:30.970Z,3.40
2023-04-04T10:41:59.104Z,3.40
2023-04-04T10:44:39.824Z,3.70
2023-04-04T10:47:14.773Z,3.63
2023-04-04T10:49:45.250Z,3.60
2023-04-04T10:52:17.376Z,3.53
2023-04-04T10:54:45.437Z,3.60
2023-04-04T10:57:14.278Z,3.20
2023-04-04T11:00:05.751Z,3.80
2023-04-04T11:02:51.962Z,3.80
2023-04-04T11:05:40.817Z,3.23
2023-04-04T11:08:10.924Z,3.60
2023-04-04T11:10:41.447Z,3.40
2023-04-04T11:13:31.969Z,3.30
2023-04-04T11:16:09.983Z,3.83
2023-04-04T11:18:42.495Z,3.57
2023-04-04T11:21:24.016Z,3.50
2023-04-04T11:24:06.696Z,3.10
2023-04-04T11:26:33.723Z,3.43
2023-04-04T11:29:08.135Z,3.40
2023-04-04T11:31:40.413Z,3.73
2023-04-04T11:34:12.923Z,3.20
2023-04-04T11:36:40.436Z,4.03
2023-04-04T11:39:10.295Z,4.40
2023-04-04T11:41:57.280Z,4.00
2023-04-04T11:44:31.196Z,3.50
2023-04-04T11:47:19.866Z,4.00
2023-04-04T11:49:47.201Z,4.50
2023-04-04T11:52:18.865Z,3.50
2023-04-04T11:54:47.885Z,3.80
2023-04-04T11:57:16.882Z,3.50
2023-04-04T11:59:47.069Z,3.57
2023-04-04T12:02:19.442Z,3.10
2023-04-04T12:04:47.581Z,3.30
2023-04-04T12:07:17.643Z,3.38
2023-04-04T12:09:45.409Z,3.60
2023-04-04T12:12:19.904Z,3.90
2023-04-04T12:14:47.876Z,3.45
2023-04-04T12:17:16.933Z,3.70
2023-04-04T12:19:44.799Z,4.10
2023-04-04T12:22:12.006Z,4.10
2023-04-04T12:24:39.318Z,3.67
2023-04-04T12:27:06.927Z,3.55
2023-04-04T12:29:36.554Z,3.90
2023-04-04T12:32:05.279Z,3.83
2023-04-04T12:34:34.640Z,4.03
2023-04-04T12:37:02.897Z,3.80
2023-04-04T12:39:30.628Z,3.90
2023-04-04T12:41:59.923Z,3.37
2023-04-04T12:44:30.484Z,3.10
2023-04-04T12:47:06.771Z,3.87
2023-04-04T12:49:45.993Z,3.50
2023-04-04T12:52:32.519Z,3.30
2023-04-04T12:55:08.449Z,3.27
2023-04-04T12:57:38.266Z,3.27
2023-04-04T13:00:09.306Z,3.37
2023-04-04T13:02:37.906Z,3.73
2023-04-04T13:05:07.591Z,3.47
2023-04-04T13:07:43.473Z,3.90
2023-04-04T13:10:14.818Z,4.60
2023-04-04T13:12:58.562Z,4.07
2023-04-04T13:15:48.472Z,3.90
2023-04-04T13:18:18.325Z,3.90
2023-04-04T13:20:45.501Z,3.53
2023-04-04T13:23:13.889Z,3.43
2023-04-04T13:25:41.212Z,3.63
2023-04-04T13:28:09.028Z,3.83
2023-04-04T13:30:36.564Z,4.50
2023-04-04T13:33:03.621Z,4.00
2023-04-04T13:35:31.769Z,3.67
2023-04-04T13:37:58.832Z,3.80
2023-04-04T13:40:25.941Z,5.00
2023-04-04T13:42:53.001Z,3.60
2023-04-04T13:45:20.320Z,3.73
2023-04-04T13:47:47.818Z,4.10
2023-04-04T13:50:14.877Z,4.17
2023-04-04T13:52:41.960Z,4.30
2023-04-04T13:55:09.463Z,4.07
2023-04-04T13:57:36.617Z,4.17
2023-04-04T14:00:05.687Z,3.90
2023-04-04T14:02:37.121Z,3.97
2023-04-04T14:05:04.665Z,3.87
2023-04-04T14:07:31.633Z,3.93
2023-04-04T14:09:58.950Z,4.00
2023-04-04T14:12:26.180Z,4.80
2023-04-04T14:14:53.272Z,4.53
2023-04-04T14:17:20.297Z,4.07
2023-04-04T14:19:47.345Z,4.73
2023-04-04T14:22:14.495Z,4.57
2023-04-04T14:24:41.627Z,4.57
2023-04-04T14:27:08.601Z,4.33
2023-04-04T14:29:35.838Z,5.00
2023-04-04T14:32:03.813Z,4.80
2023-04-04T14:34:30.888Z,5.30
2023-04-04T14:36:58.068Z,4.97
2023-04-04T14:39:25.385Z,5.50
2023-04-04T14:41:52.388Z,5.10
2023-04-04T14:44:21.364Z,5.77
2023-04-04T14:46:51.868Z,5.20
2023-04-04T14:49:19.347Z,5.03
2023-04-04T14:51:46.452Z,5.10
2023-04-04T14:54:13.389Z,5.13
2023-04-04T14:56:42.724Z,5.73
2023-04-04T14:59:09.845Z,5.63
2023-04-04T15:01:37.395Z,5.50
2023-04-04T15:04:04.433Z,5.63
2023-04-04T15:06:36.150Z,4.90
2023-04-04T15:09:06.022Z,5.10
2023-04-04T15:11:33.614Z,5.50
2023-04-04T15:14:00.654Z,5.30
2023-04-04T15:16:32.974Z,5.33
2023-04-04T15:19:00.929Z,6.47
2023-04-04T15:21:31.871Z,5.60
2023-04-04T15:23:58.899Z,5.00
2023-04-04T15:26:26.048Z,5.00
2023-04-04T15:28:53.283Z,5.37
2023-04-04T15:31:21.000Z,5.00
2023-04-04T15:33:48.497Z,5.50
2023-04-04T15:36:16.146Z,5.10
2023-04-04T15:38:43.263Z,6.00
2023-04-04T15:41:10.604Z,5.80
2023-04-04T15:43:37.729Z,5.10
2023-04-04T15:46:05.549Z,5.87
2023-04-04T15:48:34.385Z,5.77
2023-04-04T15:51:03.272Z,5.47
2023-04-04T15:53:33.476Z,5.77
2023-04-04T15:56:00.836Z,5.97
2023-04-04T15:58:28.186Z,5.50
2023-04-04T16:00:56.147Z,5.27
2023-04-04T16:03:25.805Z,5.50
2023-04-04T16:05:53.079Z,5.00
2023-04-04T16:08:20.337Z,5.97
2023-04-04T16:10:47.604Z,6.17
2023-04-04T16:13:14.607Z,5.73
2023-04-04T16:15:41.623Z,5.87
2023-04-04T16:18:08.967Z,5.97
2023-04-04T16:20:36.322Z,5.57
2023-04-04T16:23:03.366Z,6.10
2023-04-04T16:25:30.617Z,6.93
2023-04-04T16:27:57.594Z,6.03
2023-04-04T16:30:24.752Z,5.50
2023-04-04T16:32:51.963Z,5.63
2023-04-04T16:35:19.179Z,5.20
2023-04-04T16:37:46.292Z,5.00
2023-04-04T16:40:14.866Z,5.23
2023-04-04T16:42:42.571Z,5.20
2023-04-04T16:45:10.442Z,5.30
2023-04-04T16:47:37.597Z,5.07
2023-04-04T16:50:06.589Z,5.33
2023-04-04T16:52:33.578Z,5.03
2023-04-04T16:55:00.733Z,5.00
2023-04-04T16:57:27.846Z,4.80
2023-04-04T16:59:55.147Z,4.80
2023-04-04T17:02:22.655Z,5.67
2023-04-04T17:04:49.739Z,5.00
2023-04-04T17:07:17.317Z,4.53
2023-04-04T17:09:45.546Z,4.97
2023-04-04T17:12:14.556Z,5.00
2023-04-04T17:14:41.824Z,5.17
2023-04-04T17:17:09.225Z,5.10
2023-04-04T17:19:37.372Z,5.50
2023-04-04T17:22:04.470Z,5.50
2023-04-04T17:24:32.168Z,5.30
2023-04-04T17:27:00.713Z,5.50
2023-04-04T17:29:27.850Z,5.50
2023-04-04T17:31:56.623Z,5.50
2023-04-04T17:34:24.417Z,4.93
2023-04-04T17:36:52.974Z,5.13
2023-04-04T17:39:20.325Z,5.70
2023-04-04T17:41:50.209Z,5.40
2023-04-04T17:44:18.375Z,5.50
2023-04-04T17:46:46.395Z,5.60
2023-04-04T17:49:15.960Z,5.03
2023-04-04T17:51:43.311Z,5.60
2023-04-04T17:54:10.492Z,4.93
2023-04-04T17:56:37.584Z,4.90
2023-04-04T17:59:04.842Z,4.90
2023-04-04T18:01:32.041Z,5.00
2023-04-04T18:03:59.115Z,5.20
2023-04-04T18:06:27.424Z,5.00
2023-04-04T18:08:55.323Z,5.30
2023-04-04T18:11:22.946Z,4.93
2023-04-04T18:13:50.035Z,4.73
2023-04-04T18:16:17.549Z,4.70
2023-04-04T18:18:44.682Z,4.77
2023-04-04T18:21:12.399Z,4.13
2023-04-04T18:23:39.381Z,4.50
2023-04-04T18:26:07.394Z,4.50
2023-04-04T18:28:34.347Z,5.00
2023-04-04T18:31:01.524Z,4.30
2023-04-04T18:33:28.527Z,4.40
2023-04-04T18:35:55.635Z,5.07
2023-04-04T18:38:25.296Z,5.17
2023-04-04T18:40:52.891Z,5.17
2023-04-04T18:43:20.424Z,4.93
2023-04-04T18:45:48.036Z,5.00
2023-04-04T18:48:15.186Z,5.10
2023-04-04T18:50:42.646Z,5.20
2023-04-04T18:53:10.008Z,4.77
2023-04-04T18:55:37.369Z,4.97
2023-04-04T18:58:04.596Z,5.33
2023-04-04T19:00:32.065Z,5.00
2023-04-04T19:02:59.272Z,5.13
2023-04-04T19:05:26.386Z,4.70
2023-04-04T19:07:57.110Z,5.70
2023-04-04T19:10:24.614Z,5.30
2023-04-04T19:12:51.642Z,5.00
2023-04-04T19:15:18.691Z,5.27
2023-04-04T19:17:46.317Z,6.27
2023-04-04T19:20:13.370Z,6.40
2023-04-04T19:22:40.654Z,5.53
2023-04-04T19:25:08.465Z,5.97
2023-04-04T19:27:35.716Z,5.63
2023-04-04T19:30:33.461Z,5.63
2023-04-04T19:33:02.496Z,5.70
2023-04-04T19:36:09.260Z,6.23
2023-04-04T19:38:45.364Z,6.23
2023-04-04T19:41:20.574Z,5.83
2023-04-04T19:43:48.452Z,6.40
2023-04-04T19:46:29.661Z,6.47
2023-04-04T19:48:58.921Z,6.03
2023-04-04T19:51:26.690Z,6.70
2023-04-04T19:53:58.355Z,6.50
2023-04-04T19:56:27.588Z,6.20
2023-04-04T19:58:56.989Z,6.77
2023-04-04T20:01:39.009Z,6.17
2023-04-04T20:04:09.633Z,6.90
2023-04-04T20:06:38.509Z,6.90
2023-04-04T20:09:14.621Z,6.57
2023-04-04T20:11:41.703Z,6.83
2023-04-04T20:14:10.332Z,7.23
2023-04-04T20:16:37.669Z,8.07
2023-04-04T20:19:08.939Z,7.63
2023-04-04T20:21:36.277Z,7.50
2023-04-04T20:24:08.558Z,7.20
2023-04-04T20:26:38.303Z,7.73
2023-04-04T20:29:13.847Z,7.70
2023-04-04T20:31:43.788Z,7.60
2023-04-04T20:34:49.411Z,7.70
2023-04-04T20:37:19.845Z,7.57
2023-04-04T20:39:57.315Z,7.20
2023-04-04T20:42:36.235Z,6.97
2023-04-04T20:45:09.223Z,6.80
2023-04-04T20:47:49.473Z,6.63
2023-04-04T20:50:16.957Z,6.20
2023-04-04T20:52:57.338Z,6.27
2023-04-04T20:55:26.442Z,5.73
2023-04-04T20:57:56.913Z,5.40
2023-04-04T21:00:30.233Z,5.90
2023-04-04T21:02:59.355Z,5.30
2023-04-04T21:05:35.424Z,5.93
2023-04-04T21:08:08.313Z,5.83
2023-04-04T21:10:54.298Z,5.80
2023-04-04T21:13:33.452Z,5.60
2023-04-04T21:16:09.803Z,5.30
2023-04-04T21:18:38.671Z,5.33
2023-04-04T21:21:19.007Z,5.83
2023-04-04T21:23:54.427Z,5.50
2023-04-04T21:26:40.870Z,5.67
2023-04-04T21:29:16.990Z,5.50
2023-04-04T21:31:44.126Z,5.53
2023-04-04T21:34:14.463Z,5.50
2023-04-04T21:36:42.002Z,5.80
2023-04-04T21:39:26.470Z,5.27
2023-04-04T21:42:01.588Z,5.40
2023-04-04T21:44:29.728Z,5.30
2023-04-04T21:46:57.126Z,5.67
2023-04-04T21:49:25.207Z,5.70
2023-04-04T21:51:52.586Z,5.53
2023-04-04T21:54:19.798Z,6.00
2023-04-04T21:56:47.372Z,5.23
2023-04-04T21:59:14.587Z,5.67
2023-04-04T22:01:41.786Z,6.13
2023-04-04T22:04:08.974Z,6.40
2023-04-04T22:06:36.463Z,6.10
2023-04-04T22:09:04.378Z,6.00
2023-04-04T22:11:31.554Z,6.10
2023-04-04T22:14:04.335Z,6.17
2023-04-04T22:16:32.018Z,6.50
2023-04-04T22:19:01.255Z,6.50
2023-04-04T22:21:28.733Z,6.63
2023-04-04T22:24:02.373Z,6.57
2023-04-04T22:26:33.275Z,6.33
2023-04-04T22:29:04.554Z,6.00
2023-04-04T22:31:34.881Z,6.63
2023-04-04T22:34:03.404Z,6.83
2023-04-04T22:36:31.176Z,6.40
2023-04-04T22:38:58.480Z,6.30
2023-04-04T22:41:29.789Z,6.40
2023-04-04T22:43:57.829Z,6.60
2023-04-04T22:46:26.684Z,6.47
2023-04-04T22:49:05.975Z,6.20
2023-04-04T22:51:43.121Z,6.33
2023-04-04T22:54:13.129Z,6.30
2023-04-04T22:56:40.805Z,6.70
2023-04-04T22:59:07.844Z,6.50
2023-04-04T23:01:34.889Z,6.50
2023-04-04T23:04:01.887Z,6.77
2023-04-04T23:06:29.724Z,6.33
2023-04-04T23:08:56.859Z,6.40
2023-04-04T23:11:23.864Z,6.83
2023-04-04T23:13:52.036Z,6.43
2023-04-04T23:16:23.491Z,6.70
2023-04-04T23:18:51.455Z,6.80
2023-04-04T23:21:18.836Z,6.57
2023-04-04T23:23:45.807Z,7.03
2023-04-04T23:26:13.670Z,7.20
2023-04-04T23:28:40.801Z,7.63
2023-04-04T23:31:07.812Z,7.10
2023-04-04T23:33:34.925Z,7.30
2023-04-04T23:36:02.089Z,7.70
2023-04-04T23:38:29.042Z,7.10
2023-04-04T23:40:56.051Z,8.27
2023-04-04T23:43:23.131Z,8.07
2023-04-04T23:45:51.538Z,8.60
2023-04-04T23:48:18.983Z,8.10
2023-04-04T23:50:46.170Z,7.80
2023-04-04T23:53:13.197Z,8.23
2023-04-04T23:55:40.155Z,8.13
2023-04-04T23:58:07.145Z,7.60
